• Join FlightAware (Why Join?)
  • Login
  • US Flag 
11:05AM EDT


 

Airport Tracker/Info


-or-


 

Live Flight TrackerFlight Track Log ✈ N211RN ✈ 30-Apr-2014 ✈ KCKB - KMGM

Flight Track Log - Related Links

Times and Time Zones

All times are in EDT time to prevent confusion due to time zone crossing. See the N211RN flight status page for this flight to view local times or setup timezone preferences in your user account.

Time Position Orientation Groundspeed Altitude Reporting Facility
EDT Latitude Longitude Course Direction KTS MPH feet Rate Location/Type
06:46AM 39.2144 -80.3392 235° Southwest 246 283 7,900  Level Cleveland Center
06:47AM 39.1808 -80.4006 235° Southwest 247 284 9,500 1,380 Climbing Indianapolis Center
06:48AM 39.1361 -80.4772 233° Southwest 262 302 10,500 1,920 Climbing Indianapolis Center
06:49AM 39.0861 -80.5608 232° Southwest 282 325 13,500 3,420 Climbing Indianapolis Center
06:50AM 39.0342 -80.6450 232° Southwest 296 341 17,500 3,420 Climbing Indianapolis Center
06:51AM 38.9892 -80.7217 233° Southwest 278 320 20,500 2,280 Climbing Indianapolis Center
06:52AM 38.9383 -80.8061 232° Southwest 287 330 22,200 1,260 Climbing Indianapolis Center
06:53AM 38.8797 -80.9042 233° Southwest 330 380 23,100 1,380 Climbing Indianapolis Center
06:54AM 38.8178 -81.0056 232° Southwest 353 406 25,100 2,580 Climbing Indianapolis Center
06:55AM 38.7614 -81.0981 232° Southwest 345 397 28,400 2,280 Climbing Indianapolis Center
06:56AM 38.7067 -81.1864 232° Southwest 322 371 29,800 1,200 Climbing Indianapolis Center
06:57AM 38.6461 -81.2861 232° Southwest 343 395 30,900 540 Climbing Indianapolis Center
06:58AM 38.5808 -81.3911 232° Southwest 364 419 31,000  Climbing Indianapolis Center
06:59AM 38.5233 -81.5117 239° Southwest 385 443 31,000 540 Level Indianapolis Center
07:00AM 38.4719 -81.6331 242° Southwest 387 445 32,200 1,920 Climbing Indianapolis Center
07:01AM 38.4219 -81.7392 239° Southwest 355 409 35,000 1,980 Climbing Indianapolis Center
07:02AM 38.3486 -81.8025 214° Southwest 324 373 36,300 1,200 Climbing Indianapolis Center
07:03AM 38.2731 -81.8678 214° Southwest 325 374 37,500 1,260 Climbing Indianapolis Center
07:04AM 38.1986 -81.9344 215° Southwest 327 376 38,900 1,620 Climbing Indianapolis Center
07:05AM 38.1128 -82.0103 215° Southwest 314 361 40,800 1,320 Climbing Indianapolis Center
07:06AM 38.0453 -82.0700 215° Southwest 302 348 41,700 720 Climbing Indianapolis Center
07:07AM 37.9756 -82.1317 215° Southwest 301 346 42,300 420 Climbing Indianapolis Center
07:09AM 37.8303 -82.2589 215° Southwest 320 368 43,000 180 Climbing Indianapolis Center
07:10AM 37.7531 -82.3267 215° Southwest 333 383 43,000 60 Level Indianapolis Center
07:11AM 37.6739 -82.3958 215° Southwest 340 391 43,200 360 Climbing Indianapolis Center
07:12AM 37.5950 -82.4647 215° Southwest 342 394 43,800 540 Climbing Indianapolis Center
07:13AM 37.5161 -82.5331 214° Southwest 342 394 44,300 480 Climbing Indianapolis Center
07:14AM 37.4364 -82.6022 215° Southwest 343 395 44,800 300 Climbing Indianapolis Center
07:15AM 37.3556 -82.6719 214° Southwest 349 402 45,000 60 Climbing Indianapolis Center
07:16AM 37.2589 -82.7553 214° Southwest 356 410 45,000  Level Indianapolis Center
07:17AM 37.1747 -82.8283 215° Southwest 363 418 45,000  Level Indianapolis Center
07:18AM 37.0883 -82.9025 214° Southwest 372 428 45,000  Level Indianapolis Center
07:19AM 37.0025 -82.9775 215° Southwest 377 434 45,000  Level Indianapolis Center
07:20AM 36.9153 -83.0489 213° Southwest 381 438 45,000  Level Indianapolis Center
07:21AM 36.8289 -83.1231 215° Southwest 381 438 45,000  Level Indianapolis Center
07:22AM 36.7283 -83.2069 214° Southwest 378 435 45,000  Level Indianapolis Center
07:23AM 36.6422 -83.2797 214° Southwest 377 434 45,000 -60 Level Indianapolis Center
07:24AM 36.5569 -83.3517 214° Southwest 373 429 44,900  Descending Indianapolis Center
07:25AM 36.4711 -83.4236 214° Southwest 372 428 45,000  Climbing Indianapolis Center
07:27AM 36.3853 -83.4944 214° Southwest 372 428 45,000  Level Indianapolis Center
07:28AM 36.3072 -83.5606 214° Southwest 372 428 45,000  Level Indianapolis Center
07:29AM 36.2217 -83.6308 214° Southwest 371 427 45,000  Level Indianapolis Center
07:30AM 36.1192 -83.7156 214° Southwest 368 423 45,000  Level Indianapolis Center
07:31AM 36.0350 -83.7869 214° Southwest 373 429 45,000  Level Atlanta Center
07:32AM 35.9517 -83.8567 214° Southwest 373 429 45,000  Level Atlanta Center
07:33AM 35.8664 -83.9233 212° Southwest 373 429 45,000  Level Atlanta Center
07:34AM 35.7789 -83.9850 210° Southwest 368 423 45,000  Level Atlanta Center
07:35AM 35.6911 -84.0464 210° Southwest 368 423 45,000  Level Atlanta Center
07:36AM 35.6056 -84.1103 211° Southwest 363 418 45,000  Level Atlanta Center
07:37AM 35.5306 -84.1639 210° Southwest 358 412 45,000  Level Atlanta Center
07:38AM 35.4447 -84.2222 209° Southwest 358 412 45,000  Level Atlanta Center
07:39AM 35.3592 -84.2833 210° Southwest 358 412 45,000  Level Atlanta Center
07:40AM 35.2756 -84.3414 210° Southwest 358 412 45,000  Level Atlanta Center
07:41AM 35.1900 -84.4047 211° Southwest 358 412 45,000  Level Atlanta Center
07:42AM 35.1061 -84.4628 210° Southwest 358 412 45,000  Level Atlanta Center
07:43AM 35.0225 -84.5206 210° Southwest 358 412 45,000  Level Atlanta Center
07:44AM 34.9389 -84.5808 211° Southwest 358 412 45,000  Level Atlanta Center
07:45AM 34.8572 -84.6386 210° Southwest 358 412 45,000 -60 Level Atlanta Center
07:46AM 34.7733 -84.6989 211° Southwest 358 412 44,900 -600 Descending Atlanta Center
07:47AM 34.6917 -84.7564 210° Southwest 353 406 43,900 -1,080 Descending Atlanta Center
07:48AM 34.6164 -84.8086 210° Southwest 344 396 42,800 -1,200 Descending Atlanta Center
07:49AM 34.5428 -84.8608 210° Southwest 317 365 41,600 -1,320 Descending Atlanta Center
07:50AM 34.4633 -84.9131 208° Southwest 317 365 40,200 -1,440 Descending Atlanta Center
07:51AM 34.3856 -84.9700 211° Southwest 317 365 38,800 -1,380 Descending Atlanta Center
07:52AM 34.3017 -85.0294 210° Southwest 339 390 37,500 -1,380 Descending Atlanta Center
07:53AM 34.2072 -85.0936 209° Southwest 346 398 36,100 3,720 Descending Atlanta Center
07:54AM 34.1189 -85.1528 209° Southwest 362 417 45,000 -1,500 Climbing Atlanta Center
07:55AM 34.0308 -85.2194 212° Southwest 368 423 33,200 -6,600 Descending Atlanta Center
07:56AM 33.9403 -85.2783 208° Southwest 368 423 31,900 -1,380 Descending Atlanta Center
07:57AM 33.8500 -85.3419 210° Southwest 374 430 30,500 -1,440 Descending Atlanta Center
07:58AM 33.7594 -85.4081 211° Southwest 379 436 29,100 -1,260 Descending Atlanta Center
07:59AM 33.6692 -85.4692 209° Southwest 379 436 28,000 -600 Descending Atlanta Center
08:00AM 33.5869 -85.5275 211° Southwest 369 425 28,000 -300 Level Atlanta Center
08:01AM 33.5092 -85.5811 210° Southwest 338 389 27,500 -1,200 Descending Atlanta Center
08:02AM 33.4228 -85.6417 210° Southwest 348 400 25,600 -1,920 Descending Atlanta Center
08:03AM 33.3344 -85.6997 209° Southwest 365 420 23,700 -1,800 Descending Atlanta Center
08:04AM 33.2481 -85.7503 206° Southwest 355 409 22,000 -1,800 Descending Atlanta Center
08:05AM 33.1700 -85.8083 212° Southwest 350 403 20,100 -1,500 Descending Atlanta Center
08:06AM 33.0942 -85.8589 209° Southwest 336 387 19,000 -600 Descending Atlanta Center
08:07AM 33.0225 -85.9069 209° Southwest 323 372 19,000 -900 Level Atlanta Center
08:08AM 32.9464 -85.9597 210° Southwest 316 364 17,300 -1,920 Descending Atlanta Center
08:08AM 32.9086 -85.9689 192° South 326 375 16,400 -1,920 Descending Atlanta Center
08:09AM 32.8706 -86.0075 220° Southwest 316 364 15,400 -1,800 Descending Atlanta Center
08:10AM 32.7925 -86.0650 212° Southwest 316 364 13,500 -1,980 Descending Atlanta Center
08:11AM 32.7208 -86.1028 204° Southwest 316 364 11,500 -1,980 Descending Atlanta Center
08:12AM 32.6453 -86.1308 197° South 305 351 9,600 -2,100 Descending Atlanta Center
08:12AM 32.6075 -86.1422 194° South 258 297 8,700 -1,920 Descending Atlanta Center
08:13AM 32.5778 -86.1611 208° Southwest 280 322 7,700 -1,860 Descending Atlanta Center
08:14AM 32.5086 -86.1892 199° South 273 314 5,700 -1,980 Descending Atlanta Center
08:15AM 32.4433 -86.2147 198° South 267 307 3,800 -1,560 Descending Atlanta Center
08:16AM 32.3803 -86.2400 199° South 255 293 2,600 -900 Descending Atlanta Center
08:16AM 32.3469 -86.2392 179° South 204 235 2,600 -120 Level Atlanta Center
08:17AM 32.3325 -86.2217 134° Southeast 200 230 2,500 -360 Descending Atlanta Center
08:18AM 32.2908 -86.2281 187° South 176 203 2,100 -540 Descending Atlanta Center
08:20AM 32.2925 -86.3558 271° West 130 150 800 -600 Descending Atlanta Center
08:22AM 32.3000 -86.3833 209° Southwest  Level FlightAware Approximate